createdAt,value
2023-01-13T00:00:53.201Z,85.85
2023-01-13T00:03:20.752Z,85.69
2023-01-13T00:05:47.835Z,85.69
2023-01-13T00:08:14.759Z,85.35
2023-01-13T00:10:41.903Z,85.54
2023-01-13T00:13:09.424Z,85.38
2023-01-13T00:15:36.495Z,84.75
2023-01-13T00:18:03.559Z,84.73
2023-01-13T00:20:30.672Z,84.69
2023-01-13T00:22:59.006Z,84.75
2023-01-13T00:25:26.354Z,84.52
2023-01-13T00:27:53.443Z,84.25
2023-01-13T00:30:20.550Z,84.18
2023-01-13T00:32:47.669Z,83.73
2023-01-13T00:35:14.855Z,83.40
2023-01-13T00:37:41.984Z,83.33
2023-01-13T00:40:09.770Z,83.29
2023-01-13T00:42:55.191Z,82.98
2023-01-13T00:45:22.288Z,82.88
2023-01-13T00:47:49.230Z,82.96
2023-01-13T00:50:16.611Z,82.72
2023-01-13T00:52:43.579Z,82.76
2023-01-13T00:55:10.751Z,82.65
2023-01-13T00:57:37.801Z,82.47
2023-01-13T01:00:05.132Z,82.61
2023-01-13T01:02:32.126Z,82.45
2023-01-13T01:05:00.173Z,82.36
2023-01-13T01:07:27.146Z,82.41
2023-01-13T01:09:54.237Z,82.33
2023-01-13T01:12:21.202Z,82.39
2023-01-13T01:14:48.950Z,82.32
2023-01-13T01:17:15.917Z,82.25
2023-01-13T01:19:43.000Z,82.17
2023-01-13T01:22:10.103Z,82.13
2023-01-13T01:24:37.248Z,81.93
2023-01-13T01:27:04.347Z,81.95
2023-01-13T01:29:31.289Z,81.89
2023-01-13T01:31:59.266Z,81.79
2023-01-13T01:34:26.163Z,81.46
2023-01-13T01:36:53.303Z,81.35
2023-01-13T01:39:20.202Z,81.54
2023-01-13T01:42:07.562Z,81.19
2023-01-13T01:44:54.771Z,81.29
2023-01-13T01:47:23.548Z,81.30
2023-01-13T01:49:51.311Z,81.17
2023-01-13T01:52:26.395Z,81.27
2023-01-13T01:55:08.938Z,81.30
2023-01-13T01:57:39.075Z,81.16
2023-01-13T02:00:06.795Z,81.26
2023-01-13T02:02:40.131Z,81.16
2023-01-13T02:05:07.453Z,81.29
2023-01-13T02:07:36.435Z,81.46
2023-01-13T02:10:07.277Z,81.22
2023-01-13T02:12:35.290Z,81.24
2023-01-13T02:15:04.571Z,81.44
2023-01-13T02:17:56.971Z,81.34
2023-01-13T02:20:27.028Z,81.44
2023-01-13T02:23:49.757Z,81.46
2023-01-13T02:26:45.692Z,81.30
2023-01-13T02:29:53.431Z,83.84
2023-01-13T02:32:25.849Z,86.43
2023-01-13T02:35:09.580Z,86.96
2023-01-13T02:37:42.388Z,87.92
2023-01-13T02:40:16.240Z,88.66
2023-01-13T02:43:23.001Z,88.85
2023-01-13T02:45:55.216Z,89.01
2023-01-13T02:48:24.694Z,89.02
2023-01-13T02:51:01.121Z,88.99
2023-01-13T02:53:40.190Z,90.21
2023-01-13T02:56:10.621Z,90.53
2023-01-13T02:58:42.103Z,91.53
2023-01-13T03:01:09.661Z,92.16
2023-01-13T03:03:36.870Z,92.24
2023-01-13T03:06:18.844Z,92.33
2023-01-13T03:08:53.667Z,92.37
2023-01-13T03:11:21.447Z,92.69
2023-01-13T03:14:06.171Z,93.05
2023-01-13T03:16:48.683Z,93.29
2023-01-13T03:19:24.918Z,93.45
2023-01-13T03:22:13.586Z,93.65
2023-01-13T03:24:45.311Z,93.79
2023-01-13T03:27:20.691Z,93.82
2023-01-13T03:30:03.900Z,94.26
2023-01-13T03:32:44.584Z,94.50
2023-01-13T03:35:26.019Z,94.82
2023-01-13T03:38:03.801Z,95.05
2023-01-13T03:40:35.379Z,95.10
2023-01-13T03:43:32.786Z,95.13
2023-01-13T03:46:11.139Z,95.10
2023-01-13T03:48:42.743Z,94.93
2023-01-13T03:51:15.572Z,94.96
2023-01-13T03:53:55.989Z,94.84
2023-01-13T03:56:30.165Z,94.23
2023-01-13T03:58:58.689Z,94.16
2023-01-13T04:01:33.193Z,93.56
2023-01-13T04:04:08.523Z,93.91
2023-01-13T04:06:47.572Z,93.65
2023-01-13T04:09:27.633Z,93.38
2023-01-13T04:12:01.724Z,93.13
2023-01-13T04:14:29.751Z,92.82
2023-01-13T04:16:57.349Z,92.75
2023-01-13T04:19:24.536Z,92.40
2023-01-13T04:21:51.567Z,92.33
2023-01-13T04:24:18.698Z,92.19
2023-01-13T04:26:45.683Z,92.33
2023-01-13T04:29:15.397Z,91.96
2023-01-13T04:31:43.160Z,91.92
2023-01-13T04:34:13.118Z,91.99
2023-01-13T04:36:40.396Z,91.95
2023-01-13T04:39:07.394Z,91.84
2023-01-13T04:41:54.468Z,92.04
2023-01-13T04:44:21.531Z,91.72
2023-01-13T04:46:48.641Z,91.91
2023-01-13T04:49:15.812Z,91.99
2023-01-13T04:51:42.839Z,91.98
2023-01-13T04:54:11.580Z,92.25
2023-01-13T04:56:39.003Z,92.06
2023-01-13T04:59:06.087Z,92.38
2023-01-13T05:01:33.321Z,92.56
2023-01-13T05:04:00.287Z,92.74
2023-01-13T05:06:27.475Z,92.63
2023-01-13T05:08:54.610Z,92.79
2023-01-13T05:11:39.964Z,92.69
2023-01-13T05:14:25.658Z,92.99
2023-01-13T05:17:00.645Z,92.62
2023-01-13T05:19:35.519Z,92.36
2023-01-13T05:22:21.474Z,92.59
2023-01-13T05:25:07.279Z,92.56
2023-01-13T05:27:34.659Z,92.72
2023-01-13T05:30:02.131Z,93.30
2023-01-13T05:32:29.242Z,93.12
2023-01-13T05:34:56.515Z,93.27
2023-01-13T05:37:24.543Z,93.44
2023-01-13T05:40:10.388Z,93.58
2023-01-13T05:42:56.047Z,93.66
2023-01-13T05:45:23.561Z,94.30
2023-01-13T05:47:50.873Z,94.18
2023-01-13T05:50:18.259Z,94.54
2023-01-13T05:52:45.384Z,94.87
2023-01-13T05:55:12.779Z,94.91
2023-01-13T05:57:40.033Z,95.12
2023-01-13T06:00:07.887Z,95.01
2023-01-13T06:02:40.971Z,95.19
2023-01-13T06:05:08.819Z,95.34
2023-01-13T06:07:35.870Z,95.10
2023-01-13T06:10:02.997Z,95.29
2023-01-13T06:12:30.029Z,95.22
2023-01-13T06:14:56.981Z,95.49
2023-01-13T06:17:24.070Z,95.67
2023-01-13T06:19:53.597Z,96.01
2023-01-13T06:22:27.170Z,96.29
2023-01-13T06:24:54.523Z,96.35
2023-01-13T06:27:23.262Z,96.70
2023-01-13T06:29:50.342Z,96.18
2023-01-13T06:32:28.722Z,96.32
2023-01-13T06:35:00.839Z,95.77
2023-01-13T06:37:30.697Z,95.29
2023-01-13T06:40:00.567Z,94.50
2023-01-13T06:42:48.284Z,93.63
2023-01-13T06:45:15.499Z,91.96
2023-01-13T06:47:43.569Z,91.10
2023-01-13T06:50:11.570Z,90.34
2023-01-13T06:52:38.660Z,89.83
2023-01-13T06:55:06.132Z,88.91
2023-01-13T06:57:33.247Z,88.80
2023-01-13T07:00:01.341Z,87.87
2023-01-13T07:02:28.703Z,87.68
2023-01-13T07:04:55.881Z,86.68
2023-01-13T07:07:23.068Z,86.71
2023-01-13T07:09:50.074Z,86.29
2023-01-13T07:12:17.155Z,86.28
2023-01-13T07:15:02.786Z,86.35
2023-01-13T07:17:29.868Z,86.41
2023-01-13T07:19:58.160Z,85.76
2023-01-13T07:22:25.309Z,85.24
2023-01-13T07:24:52.349Z,84.74
2023-01-13T07:27:19.493Z,83.94
2023-01-13T07:29:46.524Z,83.18
2023-01-13T07:32:13.675Z,82.12
2023-01-13T07:34:40.723Z,81.50
2023-01-13T07:37:07.903Z,79.67
2023-01-13T07:39:34.948Z,79.02
2023-01-13T07:42:20.534Z,77.79
2023-01-13T07:44:48.850Z,77.15
2023-01-13T07:47:16.351Z,77.04
2023-01-13T07:49:43.552Z,76.77
2023-01-13T07:52:10.749Z,76.47
2023-01-13T07:54:41.020Z,76.29
2023-01-13T07:57:09.154Z,76.51
2023-01-13T07:59:36.408Z,75.93
2023-01-13T08:02:03.733Z,76.13
2023-01-13T08:04:31.028Z,75.81
2023-01-13T08:06:58.215Z,76.05
2023-01-13T08:09:25.488Z,75.49
2023-01-13T08:12:15.097Z,75.58
2023-01-13T08:14:42.632Z,75.60
2023-01-13T08:17:10.176Z,75.14
2023-01-13T08:19:37.297Z,75.01
2023-01-13T08:22:04.354Z,74.13
2023-01-13T08:24:31.643Z,74.91
2023-01-13T08:26:58.726Z,74.90
2023-01-13T08:29:28.724Z,74.84
2023-01-13T08:33:03.293Z,75.76
2023-01-13T08:35:30.417Z,76.51
2023-01-13T08:37:57.433Z,76.94
2023-01-13T08:40:24.725Z,76.74
2023-01-13T08:42:53.077Z,76.89
2023-01-13T08:45:20.201Z,73.81
2023-01-13T08:47:47.114Z,73.77
2023-01-13T08:50:15.067Z,73.07
2023-01-13T08:52:42.271Z,71.61
2023-01-13T08:55:10.168Z,72.22
2023-01-13T08:57:37.694Z,71.45
2023-01-13T09:00:07.381Z,72.07
2023-01-13T09:02:34.823Z,72.93
2023-01-13T09:05:04.070Z,72.12
2023-01-13T09:07:31.586Z,75.12
2023-01-13T09:09:58.876Z,75.58
2023-01-13T09:12:44.693Z,74.77
2023-01-13T09:15:12.977Z,73.68
2023-01-13T09:17:40.219Z,72.95
2023-01-13T09:20:07.608Z,71.44
2023-01-13T09:22:36.502Z,70.40
2023-01-13T09:25:04.614Z,69.76
2023-01-13T09:27:31.623Z,70.65
2023-01-13T09:29:58.656Z,69.55
2023-01-13T09:32:25.747Z,68.77
2023-01-13T09:35:02.113Z,69.44
2023-01-13T09:37:36.049Z,69.52
2023-01-13T09:40:17.807Z,70.05
2023-01-13T09:43:19.534Z,69.19
2023-01-13T09:46:05.451Z,67.99
2023-01-13T09:48:52.334Z,67.43
2023-01-13T09:51:28.386Z,67.43
2023-01-13T09:54:03.159Z,67.55
2023-01-13T09:56:30.448Z,66.17
2023-01-13T09:58:58.169Z,66.37
2023-01-13T10:01:39.858Z,66.76
2023-01-13T10:04:12.353Z,66.76
2023-01-13T10:06:42.852Z,66.17
2023-01-13T10:09:44.215Z,66.18
2023-01-13T10:12:37.749Z,65.71
2023-01-13T10:15:05.326Z,63.01
2023-01-13T10:17:50.915Z,61.93
2023-01-13T10:20:36.459Z,61.77
2023-01-13T10:23:23.610Z,61.80
2023-01-13T10:26:06.729Z,61.18
2023-01-13T10:28:33.812Z,61.00
2023-01-13T10:31:00.918Z,58.90
2023-01-13T10:33:29.606Z,58.11
2023-01-13T10:36:03.579Z,57.97
2023-01-13T10:38:48.612Z,56.83
2023-01-13T10:41:15.667Z,56.93
2023-01-13T10:44:04.594Z,54.18
2023-01-13T10:46:49.976Z,54.36
2023-01-13T10:49:36.576Z,57.22
2023-01-13T10:52:23.902Z,54.27
2023-01-13T10:54:54.675Z,53.29
2023-01-13T10:57:27.272Z,51.39
2023-01-13T10:59:56.504Z,51.19
2023-01-13T11:02:30.245Z,51.00
2023-01-13T11:05:03.415Z,55.20
2023-01-13T11:07:34.974Z,55.53
2023-01-13T11:10:44.661Z,54.24
2023-01-13T11:13:17.487Z,53.10
2023-01-13T11:15:58.264Z,56.67
2023-01-13T11:19:12.489Z,57.91
2023-01-13T11:21:51.820Z,55.38
2023-01-13T11:24:22.123Z,55.41
2023-01-13T11:26:59.122Z,56.10
2023-01-13T11:29:45.453Z,55.70
2023-01-13T11:32:20.410Z,55.29
2023-01-13T11:34:55.367Z,56.09
2023-01-13T11:37:33.120Z,56.55
2023-01-13T11:40:15.562Z,56.27
2023-01-13T11:43:00.245Z,57.00
2023-01-13T11:45:44.912Z,55.64
2023-01-13T11:48:16.496Z,56.00
2023-01-13T11:50:56.030Z,56.19
2023-01-13T11:53:44.758Z,50.49
2023-01-13T11:56:44.311Z,52.90
2023-01-13T11:59:11.435Z,55.55
2023-01-13T12:02:09.261Z,55.72
2023-01-13T12:04:44.266Z,55.86
2023-01-13T12:07:22.183Z,54.68
2023-01-13T12:10:03.764Z,51.83
2023-01-13T12:12:58.864Z,53.59
2023-01-13T12:15:45.679Z,52.77
2023-01-13T12:18:54.858Z,51.49
2023-01-13T12:21:26.003Z,52.82
2023-01-13T12:24:13.563Z,54.40
2023-01-13T12:26:51.357Z,51.57
2023-01-13T12:29:29.787Z,50.39
2023-01-13T12:31:59.739Z,48.26
2023-01-13T12:34:44.881Z,47.34
2023-01-13T12:37:39.785Z,46.17
2023-01-13T12:40:22.974Z,46.31
2023-01-13T12:43:22.967Z,47.00
2023-01-13T12:45:50.210Z,45.94
2023-01-13T12:48:44.981Z,45.59
2023-01-13T12:51:29.176Z,45.81
2023-01-13T12:53:56.741Z,46.12
2023-01-13T12:56:44.012Z,46.46
2023-01-13T12:59:16.919Z,52.58
2023-01-13T13:01:46.331Z,49.14
2023-01-13T13:04:17.571Z,45.71
2023-01-13T13:06:56.188Z,43.78
2023-01-13T13:09:25.976Z,52.24
2023-01-13T13:11:59.041Z,53.42
2023-01-13T13:14:38.163Z,54.04
2023-01-13T13:17:28.507Z,54.60
2023-01-13T13:20:00.359Z,53.53
2023-01-13T13:22:27.409Z,55.32
2023-01-13T13:24:57.780Z,57.04
2023-01-13T13:27:44.329Z,55.09
2023-01-13T13:30:29.161Z,54.28
2023-01-13T13:33:23.769Z,53.46
2023-01-13T13:36:16.904Z,54.76
2023-01-13T13:39:08.572Z,55.65
2023-01-13T13:41:55.568Z,55.53
2023-01-13T13:44:59.325Z,56.68
2023-01-13T13:47:34.897Z,56.81
2023-01-13T13:50:09.170Z,57.96
2023-01-13T13:52:54.612Z,54.20
2023-01-13T13:55:28.069Z,53.60
2023-01-13T13:57:57.816Z,54.01
2023-01-13T14:00:29.693Z,53.41
2023-01-13T14:03:01.446Z,52.50
2023-01-13T14:05:31.302Z,52.37
2023-01-13T14:08:10.399Z,52.91
2023-01-13T14:10:40.430Z,49.66
2023-01-13T14:13:27.355Z,48.98
2023-01-13T14:15:58.801Z,55.77
2023-01-13T14:18:28.085Z,56.43
2023-01-13T14:21:15.459Z,59.16
2023-01-13T14:24:01.689Z,60.11
2023-01-13T14:26:32.256Z,62.52
2023-01-13T14:29:02.358Z,65.27
2023-01-13T14:31:30.731Z,66.42
2023-01-13T14:34:01.001Z,66.25
2023-01-13T14:36:34.143Z,66.00
2023-01-13T14:39:04.411Z,65.50
2023-01-13T14:41:34.380Z,66.14
2023-01-13T14:44:04.665Z,64.81
2023-01-13T14:46:39.059Z,65.34
2023-01-13T14:49:19.477Z,65.12
2023-01-13T14:51:46.828Z,64.87
2023-01-13T14:54:43.438Z,64.39
2023-01-13T14:57:24.750Z,64.84
2023-01-13T15:00:16.167Z,66.03
2023-01-13T15:02:58.522Z,65.60
2023-01-13T15:05:25.621Z,65.40
2023-01-13T15:07:52.608Z,66.44
2023-01-13T15:10:26.877Z,67.76
2023-01-13T15:12:56.338Z,70.28
2023-01-13T15:15:30.407Z,70.36
2023-01-13T15:17:57.672Z,69.60
2023-01-13T15:20:25.443Z,70.08
2023-01-13T15:22:52.876Z,71.00
2023-01-13T15:25:20.398Z,72.08
2023-01-13T15:27:51.117Z,73.10
2023-01-13T15:30:25.227Z,73.50
2023-01-13T15:32:55.321Z,74.71
2023-01-13T15:35:24.819Z,74.49
2023-01-13T15:37:52.473Z,75.14
2023-01-13T15:40:23.676Z,75.19
2023-01-13T15:43:09.407Z,74.95
2023-01-13T15:45:55.957Z,73.66
2023-01-13T15:48:25.214Z,73.85
2023-01-13T15:50:52.711Z,73.13
2023-01-13T15:53:20.743Z,72.34
2023-01-13T15:55:52.489Z,73.01
2023-01-13T15:58:24.334Z,72.22
2023-01-13T16:00:51.655Z,71.64
2023-01-13T16:03:18.732Z,70.73
2023-01-13T16:05:46.072Z,70.47
2023-01-13T16:08:21.412Z,69.85
2023-01-13T16:10:49.601Z,69.62
2023-01-13T16:13:18.042Z,69.35
2023-01-13T16:15:48.732Z,69.20
2023-01-13T16:18:21.391Z,69.70
2023-01-13T16:20:52.893Z,70.70
2023-01-13T16:23:20.605Z,70.94
2023-01-13T16:25:47.957Z,71.21
2023-01-13T16:28:24.574Z,71.22
2023-01-13T16:30:52.101Z,71.23
2023-01-13T16:33:19.147Z,70.66
2023-01-13T16:36:10.223Z,70.66
2023-01-13T16:38:33.425Z,70.49
2023-01-13T16:41:00.485Z,71.08
2023-01-13T16:43:28.041Z,71.41
2023-01-13T16:45:55.123Z,71.24
2023-01-13T16:48:22.892Z,71.06
2023-01-13T16:50:50.113Z,71.56
2023-01-13T16:53:17.286Z,71.21
2023-01-13T16:55:45.103Z,71.73
2023-01-13T16:58:17.680Z,71.69
2023-01-13T17:00:47.115Z,72.21
2023-01-13T17:03:15.431Z,72.27
2023-01-13T17:05:44.284Z,72.21
2023-01-13T17:08:17.938Z,72.31
2023-01-13T17:10:46.550Z,72.09
2023-01-13T17:13:17.449Z,72.07
2023-01-13T17:15:46.268Z,72.59
2023-01-13T17:18:13.689Z,72.75
2023-01-13T17:20:41.210Z,72.99
2023-01-13T17:23:08.545Z,73.10
2023-01-13T17:25:35.727Z,73.31
2023-01-13T17:28:03.132Z,73.28
2023-01-13T17:30:30.277Z,73.40
2023-01-13T17:32:57.302Z,73.62
2023-01-13T17:35:26.036Z,73.60
2023-01-13T17:37:54.016Z,73.72
2023-01-13T17:40:21.503Z,74.07
2023-01-13T17:42:48.565Z,73.99
2023-01-13T17:45:16.497Z,74.23
2023-01-13T17:47:43.603Z,74.59
2023-01-13T17:50:10.924Z,74.78
2023-01-13T17:52:37.973Z,74.39
2023-01-13T17:55:05.397Z,74.34
2023-01-13T17:57:32.362Z,74.55
2023-01-13T17:59:59.741Z,74.73
2023-01-13T18:02:26.955Z,74.79
2023-01-13T18:04:54.233Z,74.71
2023-01-13T18:07:21.396Z,74.77
2023-01-13T18:09:48.496Z,74.84
2023-01-13T18:12:15.515Z,75.13
2023-01-13T18:14:42.903Z,74.92
2023-01-13T18:17:10.237Z,74.92
2023-01-13T18:19:56.313Z,75.46
2023-01-13T18:22:41.773Z,75.50
2023-01-13T18:25:33.112Z,75.53
2023-01-13T18:28:02.783Z,75.67
2023-01-13T18:30:30.112Z,75.66
2023-01-13T18:32:57.946Z,75.63
2023-01-13T18:35:25.138Z,75.57
2023-01-13T18:37:52.368Z,75.85
2023-01-13T18:40:19.659Z,75.97
2023-01-13T18:42:54.235Z,75.76
2023-01-13T18:45:29.825Z,76.14
2023-01-13T18:48:00.089Z,76.12
2023-01-13T18:50:28.584Z,75.98
2023-01-13T18:52:55.808Z,76.21
2023-01-13T18:55:23.564Z,76.19
2023-01-13T18:57:51.533Z,76.15
2023-01-13T19:00:20.686Z,76.35
2023-01-13T19:02:50.889Z,76.28
2023-01-13T19:05:18.459Z,76.45
2023-01-13T19:07:50.807Z,76.18
2023-01-13T19:10:18.441Z,76.41
2023-01-13T19:12:45.739Z,76.47
2023-01-13T19:15:13.152Z,76.53
2023-01-13T19:17:40.447Z,76.45
2023-01-13T19:20:07.996Z,76.54
2023-01-13T19:22:36.045Z,76.57
2023-01-13T19:25:04.413Z,76.34
2023-01-13T19:27:31.967Z,76.63
2023-01-13T19:30:01.131Z,76.59
2023-01-13T19:32:31.065Z,76.83
2023-01-13T19:34:59.894Z,76.51
2023-01-13T19:37:31.696Z,76.84
2023-01-13T19:40:00.257Z,76.95
2023-01-13T19:42:46.706Z,76.97
2023-01-13T19:45:28.603Z,76.91
2023-01-13T19:47:58.625Z,76.96
2023-01-13T19:50:27.382Z,76.98
2023-01-13T19:52:55.705Z,77.11
2023-01-13T19:55:24.688Z,77.16
2023-01-13T19:57:52.851Z,76.26
2023-01-13T20:00:22.984Z,75.90
2023-01-13T20:02:53.502Z,75.87
2023-01-13T20:05:25.532Z,75.87
2023-01-13T20:07:54.865Z,76.04
2023-01-13T20:10:24.679Z,76.01
2023-01-13T20:12:52.536Z,75.89
2023-01-13T20:15:20.974Z,76.05
2023-01-13T20:17:49.503Z,75.74
2023-01-13T20:20:18.824Z,76.13
2023-01-13T20:22:48.735Z,75.90
2023-01-13T20:25:17.771Z,76.01
2023-01-13T20:27:47.906Z,75.82
2023-01-13T20:30:15.719Z,75.98
2023-01-13T20:32:44.316Z,76.19
2023-01-13T20:35:15.518Z,76.25
2023-01-13T20:37:44.124Z,76.89
2023-01-13T20:40:16.095Z,76.95
2023-01-13T20:42:46.548Z,77.53
2023-01-13T20:45:18.763Z,77.69
2023-01-13T20:47:47.090Z,77.76
2023-01-13T20:50:15.880Z,77.75
2023-01-13T20:52:44.240Z,78.01
2023-01-13T20:55:13.151Z,78.13
2023-01-13T20:57:42.108Z,77.94
2023-01-13T21:00:11.464Z,77.98
2023-01-13T21:02:41.209Z,77.82
2023-01-13T21:05:10.557Z,77.59
2023-01-13T21:07:38.177Z,77.40
2023-01-13T21:10:06.117Z,76.50
2023-01-13T21:12:52.661Z,76.27
2023-01-13T21:15:23.120Z,76.85
2023-01-13T21:18:11.157Z,76.63
2023-01-13T21:20:39.749Z,76.62
2023-01-13T21:23:08.106Z,76.74
2023-01-13T21:25:40.609Z,76.53
2023-01-13T21:28:12.431Z,76.70
2023-01-13T21:30:40.681Z,76.58
2023-01-13T21:33:15.254Z,76.61
2023-01-13T21:35:43.531Z,76.57
2023-01-13T21:38:12.612Z,76.55
2023-01-13T21:40:40.674Z,76.80
2023-01-13T21:43:31.439Z,76.80
2023-01-13T21:46:17.542Z,76.89
2023-01-13T21:48:45.120Z,77.24
2023-01-13T21:51:12.533Z,77.25
2023-01-13T21:53:39.805Z,77.55
2023-01-13T21:56:08.097Z,78.01
2023-01-13T21:58:35.269Z,78.59
2023-01-13T22:01:03.259Z,78.69
2023-01-13T22:03:30.690Z,79.10
2023-01-13T22:05:58.115Z,78.91
2023-01-13T22:08:25.057Z,79.40
2023-01-13T22:10:58.412Z,79.40
2023-01-13T22:13:46.233Z,79.65
2023-01-13T22:16:15.688Z,79.79
2023-01-13T22:18:43.521Z,79.82
2023-01-13T22:21:11.276Z,82.16
2023-01-13T22:23:38.548Z,83.02
2023-01-13T22:26:07.377Z,84.75
2023-01-13T22:28:40.720Z,85.41
2023-01-13T22:31:08.353Z,85.45
2023-01-13T22:33:35.705Z,85.84
2023-01-13T22:36:03.142Z,87.05
2023-01-13T22:38:30.406Z,88.13
2023-01-13T22:40:58.583Z,88.88
2023-01-13T22:43:27.233Z,89.28
2023-01-13T22:46:08.980Z,89.29
2023-01-13T22:48:36.932Z,89.08
2023-01-13T22:51:08.628Z,88.61
2023-01-13T22:53:35.869Z,87.71
2023-01-13T22:56:04.051Z,86.25
2023-01-13T22:58:31.517Z,85.69
2023-01-13T23:01:10.108Z,85.06
2023-01-13T23:03:38.963Z,84.58
2023-01-13T23:06:06.331Z,84.22
2023-01-13T23:08:34.510Z,84.40
2023-01-13T23:11:07.442Z,83.33
2023-01-13T23:13:36.162Z,82.14
2023-01-13T23:16:06.790Z,81.53
2023-01-13T23:18:34.337Z,81.25
2023-01-13T23:21:06.984Z,80.27
2023-01-13T23:23:35.011Z,79.76
2023-01-13T23:26:03.146Z,79.62
2023-01-13T23:28:31.324Z,79.85
2023-01-13T23:30:58.624Z,79.68
2023-01-13T23:33:26.226Z,79.74
2023-01-13T23:36:02.047Z,79.57
2023-01-13T23:38:30.092Z,79.29
2023-01-13T23:40:57.619Z,79.51
2023-01-13T23:43:26.660Z,79.64
2023-01-13T23:46:05.655Z,79.56
2023-01-13T23:48:33.346Z,79.61
2023-01-13T23:51:02.342Z,79.24
2023-01-13T23:53:33.544Z,78.68
2023-01-13T23:56:02.217Z,78.53
2023-01-13T23:58:30.067Z,78.47
